Terminal Aerodrome Forecast
Issued by NWS

Home | Current Version | Previous Version | Text Only | Print | Product List | Glossary On
Versions: 1 2 3 4 5 6 7 8 9 10 11 12 13
476
FTUS44 KEWX 090520
TAFSSF
TAF
KSSF 090520Z 0906/1006 34005KT P6SM SKC
     FM091800 32007KT P6SM SKC
     FM100000 VRB03KT P6SM SKC=

USA.gov is the U.S. government's official web portal to all federal, state and local government web resources and services.